Apgar, Montana
Current Conditions -  °F | °C
As of 6:55 AM on Saturday 22 Nov 2014 (Local Time) from KGPI Reporting Station
Broken Clouds Broken Clouds  
Wind Chill:   Ceiling: 4300
Heat Index:   Visibility: 10mi
Dew Point:   Wind: 7mph
Humidity: 89%   Direction: 220°SW
Pressure: 29.37"   Gusts: NA
Location:  48.5033°N, 113.981°W
Report Text: KGPI 221355Z AUTO 22006KT 10SM FEW020 SCT034 BKN043 03/01 A2937 RMK AO2 RAE46 SLP963 P0005 T00280011
Loading
Personal Weather Stations






























Interactive Weather Map New forecast layout! Learn more

10-Day Weather Forecast

Advertisements
Track Severe Weather on mobile